createdAt,value
2017-06-14T00:00:10.505Z,17.00
2017-06-14T00:02:38.102Z,17.00
2017-06-14T00:05:05.713Z,17.00
2017-06-14T00:07:33.292Z,16.90
2017-06-14T00:10:00.875Z,16.90
2017-06-14T00:12:28.439Z,16.90
2017-06-14T00:14:56.017Z,16.90
2017-06-14T00:17:23.587Z,16.90
2017-06-14T00:19:51.465Z,16.80
2017-06-14T00:22:19.033Z,16.80
2017-06-14T00:24:46.603Z,16.70
2017-06-14T00:27:14.188Z,16.70
2017-06-14T00:29:41.758Z,16.60
2017-06-14T00:32:09.363Z,16.50
2017-06-14T00:34:36.926Z,16.40
2017-06-14T00:37:04.525Z,16.40
2017-06-14T00:39:32.126Z,16.40
2017-06-14T00:41:59.712Z,16.40
2017-06-14T00:44:28.222Z,16.40
2017-06-14T00:46:55.786Z,16.40
2017-06-14T00:49:23.367Z,16.40
2017-06-14T00:51:50.947Z,16.40
2017-06-14T00:54:18.554Z,16.30
2017-06-14T00:56:46.119Z,16.20
2017-06-14T00:59:13.682Z,16.30
2017-06-14T01:01:41.264Z,16.20
2017-06-14T01:04:08.854Z,16.20
2017-06-14T01:06:36.445Z,16.20
2017-06-14T01:09:04.012Z,16.20
2017-06-14T01:11:31.635Z,16.20
2017-06-14T01:13:59.200Z,16.20
2017-06-14T01:16:26.765Z,16.10
2017-06-14T01:18:54.343Z,16.20
2017-06-14T01:21:21.909Z,16.20
2017-06-14T01:23:49.489Z,16.20
2017-06-14T01:26:17.058Z,16.10
2017-06-14T01:28:44.937Z,16.10
2017-06-14T01:31:12.527Z,16.20
2017-06-14T01:33:40.860Z,16.10
2017-06-14T01:36:08.435Z,16.10
2017-06-14T01:38:35.996Z,16.20
2017-06-14T01:41:03.587Z,16.10
2017-06-14T01:43:31.947Z,16.10
2017-06-14T01:45:59.807Z,16.10
2017-06-14T01:48:27.371Z,16.00
2017-06-14T01:50:54.925Z,16.00
2017-06-14T01:53:22.503Z,15.90
2017-06-14T01:55:50.848Z,15.90
2017-06-14T01:58:18.447Z,15.90
2017-06-14T02:00:46.029Z,15.90
2017-06-14T02:03:13.599Z,15.90
2017-06-14T02:05:41.191Z,15.80
2017-06-14T02:08:08.771Z,15.70
2017-06-14T02:10:36.375Z,15.80
2017-06-14T02:13:03.949Z,15.70
2017-06-14T02:15:31.553Z,15.70
2017-06-14T02:17:59.121Z,15.70
2017-06-14T02:20:26.693Z,15.70
2017-06-14T02:22:54.263Z,15.70
2017-06-14T02:25:21.839Z,15.70
2017-06-14T02:27:49.422Z,15.60
2017-06-14T02:30:16.994Z,15.60
2017-06-14T02:32:44.599Z,15.60
2017-06-14T02:35:12.187Z,15.60
2017-06-14T02:37:39.790Z,15.60
2017-06-14T02:40:07.382Z,15.50
2017-06-14T02:42:34.954Z,15.50
2017-06-14T02:45:02.531Z,15.50
2017-06-14T02:47:30.099Z,15.40
2017-06-14T02:49:57.708Z,15.40
2017-06-14T02:52:25.277Z,15.40
2017-06-14T02:54:52.838Z,15.30
2017-06-14T02:57:20.425Z,15.30
2017-06-14T02:59:47.996Z,15.30
2017-06-14T03:02:15.571Z,15.30
2017-06-14T03:04:43.145Z,15.30
2017-06-14T03:07:10.707Z,15.30
2017-06-14T03:09:38.332Z,15.30
2017-06-14T03:12:05.902Z,15.30
2017-06-14T03:14:33.488Z,15.30
2017-06-14T03:17:01.065Z,15.20
2017-06-14T03:19:28.695Z,15.20
2017-06-14T03:21:56.974Z,15.20
2017-06-14T03:24:24.548Z,15.20
2017-06-14T03:26:52.131Z,15.20
2017-06-14T03:29:19.726Z,15.20
2017-06-14T03:31:47.578Z,15.20
2017-06-14T03:34:15.176Z,15.20
2017-06-14T03:36:42.766Z,15.20
2017-06-14T03:39:10.357Z,15.30
2017-06-14T03:41:37.947Z,15.40
2017-06-14T03:44:06.295Z,15.30
2017-06-14T03:46:33.865Z,15.30
2017-06-14T03:49:01.464Z,15.30
2017-06-14T03:51:29.039Z,15.30
2017-06-14T03:53:56.619Z,15.30
2017-06-14T03:56:24.204Z,15.40
2017-06-14T03:58:51.784Z,15.40
2017-06-14T04:01:19.369Z,15.40
2017-06-14T04:03:47.034Z,15.50
2017-06-14T04:06:14.656Z,15.60
2017-06-14T04:08:43.001Z,15.60
2017-06-14T04:11:10.572Z,15.60
2017-06-14T04:13:38.173Z,15.70
2017-06-14T04:16:05.740Z,15.80
2017-06-14T04:18:33.335Z,15.90
2017-06-14T04:21:00.898Z,16.00
2017-06-14T04:23:28.462Z,16.10
2017-06-14T04:25:56.044Z,16.20
2017-06-14T04:28:23.621Z,16.40
2017-06-14T04:30:51.202Z,16.40
2017-06-14T04:33:18.772Z,16.50
2017-06-14T04:35:46.556Z,16.60
2017-06-14T04:38:14.126Z,16.70
2017-06-14T04:40:41.707Z,16.80
2017-06-14T04:43:09.284Z,16.90
2017-06-14T04:45:36.873Z,17.00
2017-06-14T04:48:04.532Z,17.00
2017-06-14T04:50:32.108Z,17.10
2017-06-14T04:52:59.707Z,17.20
2017-06-14T04:55:27.279Z,17.20
2017-06-14T04:57:54.846Z,17.30
2017-06-14T05:00:22.454Z,17.40
2017-06-14T05:02:50.030Z,17.50
2017-06-14T05:05:17.634Z,17.60
2017-06-14T05:07:45.221Z,17.70
2017-06-14T05:10:12.821Z,17.70
2017-06-14T05:12:40.417Z,17.70
2017-06-14T05:15:08.021Z,17.70
2017-06-14T05:17:35.610Z,17.70
2017-06-14T05:20:03.953Z,17.80
2017-06-14T05:22:31.546Z,17.80
2017-06-14T05:24:59.872Z,18.00
2017-06-14T05:27:27.481Z,17.90
2017-06-14T05:29:55.829Z,18.10
2017-06-14T05:32:23.394Z,18.10
2017-06-14T05:34:50.975Z,18.20
2017-06-14T05:37:18.544Z,18.20
2017-06-14T05:39:46.142Z,18.30
2017-06-14T05:42:13.719Z,18.30
2017-06-14T05:44:41.313Z,18.30
2017-06-14T05:47:09.652Z,18.50
2017-06-14T05:49:37.233Z,18.40
2017-06-14T05:52:05.580Z,18.60
2017-06-14T05:54:33.132Z,18.60
2017-06-14T05:57:00.700Z,18.70
2017-06-14T05:59:28.264Z,18.70
2017-06-14T06:01:55.855Z,18.70
2017-06-14T06:04:24.179Z,18.80
2017-06-14T06:06:51.751Z,18.80
2017-06-14T06:09:19.344Z,18.90
2017-06-14T06:11:47.684Z,19.10
2017-06-14T06:14:15.305Z,19.10
2017-06-14T06:16:42.907Z,19.10
2017-06-14T06:19:10.766Z,19.20
2017-06-14T06:21:38.334Z,19.30
2017-06-14T06:24:05.907Z,19.30
2017-06-14T06:26:33.498Z,19.30
2017-06-14T06:29:01.049Z,19.30
2017-06-14T06:31:28.631Z,19.30
2017-06-14T06:33:56.224Z,19.40
2017-06-14T06:36:23.815Z,19.50
2017-06-14T06:38:52.151Z,19.60
2017-06-14T06:41:19.726Z,19.60
2017-06-14T06:43:47.313Z,19.50
2017-06-14T06:46:15.671Z,19.40
2017-06-14T06:48:43.265Z,19.40
2017-06-14T06:51:10.825Z,19.30
2017-06-14T06:53:38.461Z,19.40
2017-06-14T06:56:06.024Z,19.50
2017-06-14T06:58:34.365Z,19.60
2017-06-14T07:01:01.945Z,19.50
2017-06-14T07:03:29.507Z,19.60
2017-06-14T07:05:57.077Z,19.80
2017-06-14T07:08:25.410Z,20.10
2017-06-14T07:10:53.015Z,20.00
2017-06-14T07:13:21.339Z,20.40
2017-06-14T07:15:48.909Z,20.40
2017-06-14T07:18:16.502Z,20.60
2017-06-14T07:20:44.067Z,20.80
2017-06-14T07:23:12.412Z,21.00
2017-06-14T07:25:39.966Z,20.90
2017-06-14T07:28:07.517Z,20.90
2017-06-14T07:30:35.119Z,21.00
2017-06-14T07:33:02.676Z,21.10
2017-06-14T07:35:30.253Z,21.00
2017-06-14T07:37:57.827Z,21.10
2017-06-14T07:40:25.652Z,21.20
2017-06-14T07:42:53.240Z,21.20
2017-06-14T07:45:20.799Z,21.20
2017-06-14T07:47:48.384Z,21.20
2017-06-14T07:50:15.939Z,21.30
2017-06-14T07:52:43.504Z,21.30
2017-06-14T07:55:11.065Z,21.40
2017-06-14T07:57:38.672Z,21.50
2017-06-14T08:00:06.482Z,21.50
2017-06-14T08:02:34.028Z,21.60
2017-06-14T08:05:01.611Z,21.80
2017-06-14T08:07:29.170Z,21.90
2017-06-14T08:09:56.742Z,21.70
2017-06-14T08:12:24.314Z,21.60
2017-06-14T08:14:51.913Z,21.60
2017-06-14T08:17:19.485Z,21.70
2017-06-14T08:19:47.083Z,21.80
2017-06-14T08:22:14.663Z,22.00
2017-06-14T08:24:42.252Z,22.00
2017-06-14T08:27:09.863Z,22.10
2017-06-14T08:29:38.439Z,22.30
2017-06-14T08:32:06.221Z,22.30
2017-06-14T08:34:33.780Z,22.40
2017-06-14T08:37:01.708Z,22.40
2017-06-14T08:39:29.275Z,22.40
2017-06-14T08:41:57.572Z,22.40
2017-06-14T08:44:25.152Z,22.30
2017-06-14T08:46:52.728Z,22.30
2017-06-14T08:49:20.562Z,22.30
2017-06-14T08:51:48.129Z,22.20
2017-06-14T08:54:15.688Z,22.20
2017-06-14T08:56:43.292Z,22.40
2017-06-14T08:59:10.850Z,22.60
2017-06-14T09:01:38.421Z,22.70
2017-06-14T09:04:06.011Z,22.70
2017-06-14T09:06:33.566Z,22.90
2017-06-14T09:09:01.149Z,22.60
2017-06-14T09:11:28.743Z,22.50
2017-06-14T09:13:56.353Z,22.50
2017-06-14T09:16:23.947Z,22.50
2017-06-14T09:18:51.756Z,22.70
2017-06-14T09:21:19.335Z,22.70
2017-06-14T09:23:46.901Z,22.80
2017-06-14T09:26:14.472Z,22.90
2017-06-14T09:28:42.838Z,23.20
2017-06-14T09:31:10.413Z,23.20
2017-06-14T09:33:38.787Z,23.30
2017-06-14T09:36:07.141Z,23.40
2017-06-14T09:38:34.733Z,23.40
2017-06-14T09:41:02.309Z,23.60
2017-06-14T09:43:29.895Z,23.50
2017-06-14T09:45:57.470Z,23.50
2017-06-14T09:48:25.043Z,23.80
2017-06-14T09:50:52.615Z,23.80
2017-06-14T09:53:20.982Z,23.80
2017-06-14T09:55:48.537Z,23.80
2017-06-14T09:58:16.100Z,23.90
2017-06-14T10:00:43.683Z,24.00
2017-06-14T10:03:12.094Z,24.00
2017-06-14T10:05:39.659Z,24.00
2017-06-14T10:08:07.214Z,23.90
2017-06-14T10:10:34.827Z,23.90
2017-06-14T10:13:03.165Z,24.00
2017-06-14T10:15:30.745Z,24.00
2017-06-14T10:17:58.464Z,24.20
2017-06-14T10:20:26.044Z,24.30
2017-06-14T10:22:53.636Z,24.40
2017-06-14T10:25:21.958Z,24.60
2017-06-14T10:27:49.745Z,24.60
2017-06-14T10:30:17.318Z,24.60
2017-06-14T10:32:44.879Z,24.70
2017-06-14T10:35:12.563Z,24.70
2017-06-14T10:37:40.891Z,24.80
2017-06-14T10:40:08.450Z,24.70
2017-06-14T10:42:36.020Z,24.80
2017-06-14T10:45:03.611Z,24.70
2017-06-14T10:47:31.949Z,24.80
2017-06-14T10:49:59.517Z,24.90
2017-06-14T10:52:27.083Z,24.60
2017-06-14T10:54:54.643Z,24.20
2017-06-14T10:57:22.218Z,24.30
2017-06-14T10:59:50.645Z,24.60
2017-06-14T11:02:18.440Z,24.90
2017-06-14T11:04:45.999Z,25.30
2017-06-14T11:07:13.570Z,25.60
2017-06-14T11:09:41.147Z,25.60
2017-06-14T11:12:09.476Z,25.10
2017-06-14T11:14:37.065Z,25.10
2017-06-14T11:17:04.613Z,25.00
2017-06-14T11:19:32.186Z,25.00
2017-06-14T11:21:59.772Z,24.90
2017-06-14T11:24:27.344Z,24.90
2017-06-14T11:26:54.911Z,25.00
2017-06-14T11:29:22.464Z,25.00
2017-06-14T11:31:50.057Z,25.20
2017-06-14T11:34:17.654Z,25.40
2017-06-14T11:36:45.977Z,25.40
2017-06-14T11:39:13.557Z,25.40
2017-06-14T11:41:41.137Z,25.30
2017-06-14T11:44:08.723Z,25.50
2017-06-14T11:46:36.289Z,25.60
2017-06-14T11:49:03.866Z,25.40
2017-06-14T11:51:31.428Z,25.40
2017-06-14T11:53:59.001Z,25.60
2017-06-14T11:56:26.581Z,25.80
2017-06-14T11:58:54.157Z,26.00
2017-06-14T12:01:22.503Z,26.40
2017-06-14T12:03:50.054Z,26.40
2017-06-14T12:06:17.655Z,26.50
2017-06-14T12:08:45.987Z,26.50
2017-06-14T12:11:13.552Z,26.50
2017-06-14T12:13:41.118Z,26.80
2017-06-14T12:16:08.698Z,27.20
2017-06-14T12:18:36.265Z,27.30
2017-06-14T12:21:04.610Z,27.20
2017-06-14T12:23:32.203Z,27.20
2017-06-14T12:26:00.538Z,27.50
2017-06-14T12:28:28.100Z,27.40
2017-06-14T12:30:55.680Z,27.60
2017-06-14T12:33:23.254Z,27.50
2017-06-14T12:35:51.616Z,27.50
2017-06-14T12:38:19.179Z,27.40
2017-06-14T12:40:46.758Z,27.40
2017-06-14T12:43:15.105Z,27.60
2017-06-14T12:45:42.666Z,27.60
2017-06-14T12:48:10.241Z,27.80
2017-06-14T12:50:38.568Z,28.50
2017-06-14T12:53:06.157Z,28.50
2017-06-14T12:55:33.723Z,28.30
2017-06-14T12:58:01.273Z,28.10
2017-06-14T13:00:28.860Z,27.60
2017-06-14T13:02:57.185Z,27.30
2017-06-14T13:05:25.045Z,27.30
2017-06-14T13:07:52.610Z,27.40
2017-06-14T13:10:20.171Z,27.40
2017-06-14T13:12:47.754Z,27.70
2017-06-14T13:15:15.339Z,27.90
2017-06-14T13:17:43.969Z,28.10
2017-06-14T13:20:11.521Z,28.10
2017-06-14T13:22:39.086Z,28.00
2017-06-14T13:25:06.670Z,28.20
2017-06-14T13:27:34.228Z,28.60
2017-06-14T13:30:01.819Z,28.90
2017-06-14T13:32:29.384Z,28.90
2017-06-14T13:34:56.954Z,29.00
2017-06-14T13:37:24.528Z,28.50
2017-06-14T13:39:52.096Z,28.30
2017-06-14T13:42:19.670Z,28.50
2017-06-14T13:44:47.257Z,29.20
2017-06-14T13:47:14.813Z,29.70
2017-06-14T13:49:42.390Z,29.90
2017-06-14T13:52:11.002Z,29.90
2017-06-14T13:54:38.562Z,29.80
2017-06-14T13:57:06.122Z,29.80
2017-06-14T13:59:33.710Z,29.80
2017-06-14T14:02:01.260Z,29.80
2017-06-14T14:04:28.828Z,29.70
2017-06-14T14:06:56.406Z,29.60
2017-06-14T14:09:24.008Z,29.80
2017-06-14T14:11:51.574Z,30.20
2017-06-14T14:14:19.145Z,30.60
2017-06-14T14:16:46.721Z,30.80
2017-06-14T14:19:14.284Z,31.00
2017-06-14T14:21:41.857Z,31.10
2017-06-14T14:24:09.427Z,31.30
2017-06-14T14:26:37.019Z,31.10
2017-06-14T14:29:04.592Z,31.30
2017-06-14T14:31:32.171Z,31.40
2017-06-14T14:33:59.750Z,31.40
2017-06-14T14:36:27.323Z,31.40
2017-06-14T14:38:55.674Z,31.00
2017-06-14T14:41:23.232Z,31.00
2017-06-14T14:43:50.791Z,31.00
2017-06-14T14:46:18.368Z,30.90
2017-06-14T14:48:45.932Z,30.90
2017-06-14T14:51:14.282Z,31.40
2017-06-14T14:53:41.838Z,31.40
2017-06-14T14:56:09.436Z,31.90
2017-06-14T14:58:37.750Z,32.90
2017-06-14T15:01:05.331Z,32.90
2017-06-14T15:03:32.965Z,33.70
2017-06-14T15:06:00.526Z,34.60
2017-06-14T15:08:28.124Z,35.50
2017-06-14T15:10:55.684Z,36.70
2017-06-14T15:13:23.257Z,37.80
2017-06-14T15:15:51.594Z,39.40
2017-06-14T15:18:19.148Z,39.30
2017-06-14T15:20:46.748Z,39.40
2017-06-14T15:23:14.316Z,39.80
2017-06-14T15:25:42.648Z,41.60
2017-06-14T15:28:10.224Z,41.60
2017-06-14T15:30:37.789Z,42.30
2017-06-14T15:33:05.368Z,43.10
2017-06-14T15:35:33.686Z,45.00
2017-06-14T15:38:01.651Z,45.00
2017-06-14T15:40:29.220Z,45.50
2017-06-14T15:42:56.784Z,45.00
2017-06-14T15:45:24.351Z,43.40
2017-06-14T15:47:51.914Z,41.10
2017-06-14T15:50:20.040Z,39.50
2017-06-14T15:52:47.633Z,38.90
2017-06-14T15:55:15.192Z,39.40
2017-06-14T15:57:42.759Z,40.60
2017-06-14T16:00:10.344Z,41.50
2017-06-14T16:02:38.702Z,42.40
2017-06-14T16:05:06.277Z,42.40
2017-06-14T16:07:33.836Z,42.30
2017-06-14T16:10:01.486Z,40.20
2017-06-14T16:12:29.059Z,39.70
2017-06-14T16:14:57.414Z,39.50
2017-06-14T16:17:24.974Z,39.50
2017-06-14T16:19:52.560Z,38.40
2017-06-14T16:22:20.890Z,36.80
2017-06-14T16:24:48.482Z,36.80
2017-06-14T16:27:16.067Z,36.10
2017-06-14T16:29:43.623Z,35.50
2017-06-14T16:32:11.219Z,34.60
2017-06-14T16:34:38.779Z,33.70
2017-06-14T16:37:06.362Z,33.10
2017-06-14T16:39:33.948Z,32.50
2017-06-14T16:42:01.512Z,32.10
2017-06-14T16:44:29.874Z,31.10
2017-06-14T16:46:57.436Z,31.00
2017-06-14T16:49:25.784Z,30.20
2017-06-14T16:51:53.371Z,30.20
2017-06-14T16:54:20.941Z,29.90
2017-06-14T16:56:48.542Z,29.70
2017-06-14T16:59:16.110Z,29.60
2017-06-14T17:01:43.716Z,29.40
2017-06-14T17:04:12.051Z,29.10
2017-06-14T17:06:39.623Z,29.10
2017-06-14T17:09:07.219Z,29.00
2017-06-14T17:11:34.778Z,28.80
2017-06-14T17:14:03.141Z,28.30
2017-06-14T17:16:31.484Z,28.10
2017-06-14T17:18:59.061Z,28.10
2017-06-14T17:21:26.957Z,28.00
2017-06-14T17:23:54.532Z,27.90
2017-06-14T17:26:22.123Z,27.80
2017-06-14T17:28:49.706Z,27.60
2017-06-14T17:31:17.275Z,27.50
2017-06-14T17:33:45.648Z,27.40
2017-06-14T17:36:13.226Z,27.40
2017-06-14T17:38:41.570Z,27.10
2017-06-14T17:41:09.141Z,27.10
2017-06-14T17:43:36.715Z,26.90
2017-06-14T17:46:04.316Z,26.90
2017-06-14T17:48:31.883Z,26.90
2017-06-14T17:50:59.451Z,26.80
2017-06-14T17:53:27.029Z,26.70
2017-06-14T17:55:54.587Z,26.60
2017-06-14T17:58:22.155Z,26.50
2017-06-14T18:00:49.729Z,26.40
2017-06-14T18:03:18.359Z,26.20
2017-06-14T18:05:45.917Z,26.20
2017-06-14T18:08:13.474Z,26.10
2017-06-14T18:10:41.084Z,26.00
2017-06-14T18:13:09.414Z,25.70
2017-06-14T18:15:37.021Z,25.70
2017-06-14T18:18:05.346Z,25.40
2017-06-14T18:20:33.000Z,25.40
2017-06-14T18:23:00.595Z,25.30
2017-06-14T18:25:28.162Z,25.20
2017-06-14T18:27:55.781Z,25.20
2017-06-14T18:30:23.357Z,25.10
2017-06-14T18:32:50.923Z,25.00
2017-06-14T18:35:18.513Z,25.00
2017-06-14T18:37:46.123Z,24.90
2017-06-14T18:40:14.005Z,24.70
2017-06-14T18:42:41.593Z,24.70
2017-06-14T18:45:09.949Z,24.40
2017-06-14T18:47:37.525Z,24.40
2017-06-14T18:50:05.091Z,24.30
2017-06-14T18:52:33.507Z,24.00
2017-06-14T18:55:01.075Z,24.00
2017-06-14T18:57:28.645Z,23.90
2017-06-14T18:59:56.246Z,23.80
2017-06-14T19:02:24.579Z,23.60
2017-06-14T19:04:52.158Z,23.50
2017-06-14T19:07:19.717Z,23.40
2017-06-14T19:09:47.294Z,23.30
2017-06-14T19:12:14.859Z,23.20
2017-06-14T19:14:43.197Z,23.00
2017-06-14T19:17:10.811Z,23.00
2017-06-14T19:19:39.139Z,22.70
2017-06-14T19:22:06.707Z,22.70
2017-06-14T19:24:34.294Z,22.60
2017-06-14T19:27:02.634Z,22.40
2017-06-14T19:29:30.223Z,22.40
2017-06-14T19:31:58.547Z,22.30
2017-06-14T19:34:26.167Z,22.30
2017-06-14T19:36:54.519Z,22.10
2017-06-14T19:39:22.111Z,22.10
2017-06-14T19:41:50.487Z,22.00
2017-06-14T19:44:18.828Z,21.90
2017-06-14T19:46:46.422Z,21.90
2017-06-14T19:49:14.752Z,21.70
2017-06-14T19:51:42.310Z,21.70
2017-06-14T19:54:09.916Z,21.70
2017-06-14T19:56:38.273Z,21.50
2017-06-14T19:59:05.828Z,21.50
2017-06-14T20:01:33.421Z,21.40
2017-06-14T20:04:00.992Z,21.40
2017-06-14T20:06:28.568Z,21.30
2017-06-14T20:08:56.179Z,21.20
2017-06-14T20:11:24.525Z,21.10
2017-06-14T20:13:52.096Z,21.10
2017-06-14T20:16:20.458Z,20.90
2017-06-14T20:18:48.019Z,20.90
2017-06-14T20:21:15.621Z,20.90
2017-06-14T20:23:43.955Z,20.80
2017-06-14T20:26:11.530Z,20.70
2017-06-14T20:28:39.104Z,20.70
2017-06-14T20:31:07.447Z,20.60
2017-06-14T20:33:35.049Z,20.60
2017-06-14T20:36:03.399Z,20.50
2017-06-14T20:38:31.009Z,20.50
2017-06-14T20:40:58.579Z,20.40
2017-06-14T20:43:26.168Z,20.30
2017-06-14T20:45:53.792Z,20.30
2017-06-14T20:48:21.380Z,20.20
2017-06-14T20:50:48.970Z,20.20
2017-06-14T20:53:17.314Z,20.10
2017-06-14T20:55:44.912Z,20.10
2017-06-14T20:58:13.533Z,20.00
2017-06-14T21:00:41.106Z,20.00
2017-06-14T21:03:08.668Z,19.90
2017-06-14T21:05:36.269Z,19.90
2017-06-14T21:08:04.651Z,19.80
2017-06-14T21:10:32.713Z,19.80
2017-06-14T21:13:00.322Z,19.80
2017-06-14T21:15:27.935Z,19.70
2017-06-14T21:17:56.298Z,19.60
2017-06-14T21:20:24.110Z,19.60
2017-06-14T21:22:51.753Z,19.60
2017-06-14T21:25:19.453Z,19.50
2017-06-14T21:27:47.068Z,19.50
2017-06-14T21:30:15.414Z,19.40
2017-06-14T21:32:43.044Z,19.40
2017-06-14T21:35:10.632Z,19.40
2017-06-14T21:37:38.206Z,19.30
2017-06-14T21:40:05.805Z,19.30
2017-06-14T21:42:33.403Z,19.30
2017-06-14T21:45:01.021Z,19.30
2017-06-14T21:47:28.592Z,19.30
2017-06-14T21:49:56.177Z,19.20
2017-06-14T21:52:23.761Z,19.10
2017-06-14T21:54:51.319Z,19.00
2017-06-14T21:57:18.961Z,18.90
2017-06-14T21:59:46.541Z,18.90
2017-06-14T22:02:14.127Z,18.90
2017-06-14T22:04:41.706Z,18.90
2017-06-14T22:07:09.311Z,18.90
2017-06-14T22:09:36.900Z,18.90
2017-06-14T22:12:05.312Z,18.80
2017-06-14T22:14:32.933Z,18.80
2017-06-14T22:17:01.257Z,18.70
2017-06-14T22:19:28.833Z,18.70
2017-06-14T22:21:56.392Z,18.60
2017-06-14T22:24:24.251Z,18.50
2017-06-14T22:26:51.823Z,18.40
2017-06-14T22:29:19.384Z,18.40
2017-06-14T22:31:47.727Z,18.40
2017-06-14T22:34:15.293Z,18.40
2017-06-14T22:36:42.876Z,18.30
2017-06-14T22:39:10.452Z,18.20
2017-06-14T22:41:38.815Z,18.10
2017-06-14T22:44:06.384Z,18.10
2017-06-14T22:46:33.954Z,18.00
2017-06-14T22:49:02.283Z,18.00
2017-06-14T22:51:29.837Z,18.00
2017-06-14T22:53:57.416Z,18.00
2017-06-14T22:56:24.989Z,18.00
2017-06-14T22:58:52.967Z,18.00
2017-06-14T23:01:21.311Z,17.90
2017-06-14T23:03:48.887Z,17.90
2017-06-14T23:06:16.482Z,17.80
2017-06-14T23:08:44.811Z,17.70
2017-06-14T23:11:12.397Z,17.70
2017-06-14T23:13:40.747Z,17.60
2017-06-14T23:16:08.349Z,17.60
2017-06-14T23:18:36.701Z,17.50
2017-06-14T23:21:04.266Z,17.50
2017-06-14T23:23:31.859Z,17.50
2017-06-14T23:25:59.440Z,17.50
2017-06-14T23:28:27.140Z,17.50
2017-06-14T23:30:54.714Z,17.50
2017-06-14T23:33:23.078Z,17.40
2017-06-14T23:35:50.645Z,17.40
2017-06-14T23:38:18.217Z,17.30
2017-06-14T23:40:45.809Z,17.30
2017-06-14T23:43:13.369Z,17.30
2017-06-14T23:45:40.952Z,17.20
2017-06-14T23:48:08.514Z,17.20
2017-06-14T23:50:36.110Z,17.10
2017-06-14T23:53:03.689Z,17.10
2017-06-14T23:55:31.256Z,17.10
2017-06-14T23:57:58.831Z,17.10
